Time;durP1;ratioP1;P1;durP2;ratioP2;P2;SDS_P1;SDS_P2;PMS_P1;PMS_P2;Temp;Humidity;BMP_temperature;BMP_pressure;BME280_temperature;BME280_humidity;BME280_pressure;Samples;Min_cycle;Max_cycle;Signal;HPM_P1;HPM_P2
2021/08/24 04:15:35;;;;;;;7.68;4.30;;;;;;;10.79;100.00;99490.44;5901437;23;19926;-74
2021/08/24 04:18:00;;;;;;;7.07;3.95;;;;;;;10.76;100.00;99489.59;4995402;28;20047;-74
2021/08/24 04:20:26;;;;;;;7.85;4.88;;;;;;;10.81;100.00;99487.84;4988213;28;20089;-75
2021/08/24 04:22:51;;;;;;;6.53;4.63;;;;;;;11.01;100.00;99479.88;4987083;28;20109;-74
2021/08/24 04:25:18;;;;;;;7.28;3.78;;;;;;;10.92;100.00;99486.00;4995222;28;20030;-74
2021/08/24 04:27:44;;;;;;;6.18;4.47;;;;;;;10.85;100.00;99493.84;4979595;28;20114;-75
2021/08/24 04:30:10;;;;;;;6.50;4.05;;;;;;;10.88;100.00;99499.88;4989715;23;20062;-75
2021/08/24 04:32:40;;;;;;;4.45;3.58;;;;;;;10.99;100.00;99503.25;4946281;28;20034;-75
2021/08/24 04:35:06;;;;;;;5.00;3.63;;;;;;;10.96;100.00;99502.41;4948144;28;20031;-78
2021/08/24 04:37:31;;;;;;;4.72;3.88;;;;;;;10.98;100.00;99492.91;4948369;28;20038;-77
2021/08/24 04:39:56;;;;;;;10.90;4.03;;;;;;;10.88;100.00;99499.88;4943650;28;20114;-79
2021/08/24 04:42:22;;;;;;;5.72;3.80;;;;;;;10.89;100.00;99503.34;4939362;29;20046;-76
2021/08/24 04:44:47;;;;;;;9.18;3.67;;;;;;;10.87;100.00;99497.28;4939631;29;20023;-75
2021/08/24 04:47:12;;;;;;;14.10;4.95;;;;;;;10.95;100.00;99496.38;4938231;29;20070;-76
2021/08/24 04:49:38;;;;;;;6.13;4.00;;;;;;;10.97;100.00;99498.94;4940173;28;20689;-74
2021/08/24 04:52:04;;;;;;;9.95;4.70;;;;;;;11.01;100.00;99504.09;4938911;29;20633;-74
2021/08/24 04:54:34;;;;;;;5.55;4.60;;;;;;;11.12;100.00;99503.13;4938927;28;20816;-76
2021/08/24 04:57:05;;;;;;;5.30;3.83;;;;;;;11.17;100.00;99503.94;4939267;28;20154;-76
2021/08/24 04:59:31;;;;;;;7.68;3.83;;;;;;;11.21;100.00;99508.25;4945416;28;20090;-75
2021/08/24 05:01:56;;;;;;;5.63;3.83;;;;;;;11.18;100.00;99506.56;4945113;29;20035;-77
2021/08/24 05:04:22;;;;;;;10.50;4.10;;;;;;;11.37;100.00;99496.88;4946332;29;20559;-76
2021/08/24 05:06:48;;;;;;;12.13;4.40;;;;;;;11.35;99.58;99505.53;4945420;29;20396;-76
2021/08/24 05:09:13;;;;;;;7.05;3.72;;;;;;;11.62;100.00;99509.59;4946197;28;20027;-76
2021/08/24 05:11:38;;;;;;;5.70;3.40;;;;;;;11.80;99.65;99506.81;4946475;29;20046;-74
2021/08/24 05:14:04;;;;;;;5.47;3.78;;;;;;;11.80;98.55;99517.19;4944564;29;20035;-74
2021/08/24 05:16:29;;;;;;;5.50;3.20;;;;;;;11.84;97.69;99513.69;4945731;29;20041;-75
2021/08/24 05:18:55;;;;;;;5.85;4.00;;;;;;;12.06;99.46;99512.56;4944488;29;20046;-75
2021/08/24 05:21:20;;;;;;;7.72;4.30;;;;;;;12.04;99.27;99509.16;4943200;29;20038;-77
2021/08/24 05:23:46;;;;;;;6.40;3.80;;;;;;;12.08;96.62;99515.16;4946127;29;20046;-74
2021/08/24 05:26:14;;;;;;;5.03;3.40;;;;;;;12.17;96.19;99512.44;4946689;29;20031;-77
2021/08/24 05:28:41;;;;;;;4.77;3.30;;;;;;;12.37;96.38;99512.19;4944045;29;20230;-75
2021/08/24 05:31:06;;;;;;;4.57;3.58;;;;;;;12.55;95.13;99517.13;4945702;28;20636;-74
2021/08/24 05:33:32;;;;;;;7.20;3.90;;;;;;;12.65;93.32;99517.00;4945909;29;20067;-74
2021/08/24 05:36:01;;;;;;;6.07;3.67;;;;;;;12.65;93.11;99522.19;4945298;29;20042;-78
2021/08/24 05:38:28;;;;;;;;;;;;;;;12.59;95.70;99518.81;4961755;28;20481;-77
2021/08/24 05:40:55;;;;;;;7.55;3.67;;;;;;;12.56;94.54;99513.63;4945237;28;19925;-75
2021/08/24 05:43:20;;;;;;;7.20;4.05;;;;;;;12.48;94.35;99518.09;4944956;29;20031;-75
2021/08/24 05:45:53;;;;;;;6.72;3.70;;;;;;;12.79;93.63;99515.06;4944693;28;21031;-74
2021/08/24 05:48:18;;;;;;;5.38;3.58;;;;;;;12.85;94.99;99520.16;4943512;28;20541;-78
2021/08/24 05:50:44;;;;;;;5.25;3.90;;;;;;;12.98;92.92;99519.09;4945384;28;20486;-75
2021/08/24 05:53:09;;;;;;;5.55;3.80;;;;;;;13.11;91.08;99520.63;4945531;29;20051;-75
2021/08/24 05:55:34;;;;;;;9.85;4.00;;;;;;;13.30;89.14;99513.41;4945679;29;20129;-76
2021/08/24 05:58:00;;;;;;;6.80;3.40;;;;;;;13.41;89.82;99520.16;4943226;29;20023;-77
2021/08/24 06:00:25;;;;;;;6.55;2.88;;;;;;;13.45;88.94;99519.22;4943462;28;20050;-75
2021/08/24 06:02:51;;;;;;;7.10;3.90;;;;;;;13.69;89.10;99516.19;4942553;28;20031;-74
2021/08/24 06:05:16;;;;;;;5.55;3.17;;;;;;;13.73;87.94;99514.34;4943596;29;20468;-75
2021/08/24 06:07:41;;;;;;;5.05;3.17;;;;;;;13.91;88.21;99515.75;4944229;28;20023;-76
2021/08/24 06:10:07;;;;;;;3.78;3.33;;;;;;;14.28;85.40;99515.88;4941281;29;20038;-78
2021/08/24 06:12:34;;;;;;;8.45;3.83;;;;;;;14.23;84.43;99517.72;4935994;29;20031;-78
2021/08/24 06:14:59;;;;;;;5.07;3.67;;;;;;;14.48;84.56;99518.06;4945532;28;20027;-78
2021/08/24 06:17:25;;;;;;;7.88;3.65;;;;;;;14.63;83.51;99513.38;4945696;29;20507;-78
2021/08/24 06:19:50;;;;;;;6.13;3.47;;;;;;;14.93;82.05;99516.16;4944158;29;20475;-76
2021/08/24 06:22:16;;;;;;;5.53;3.67;;;;;;;15.26;83.64;99513.63;4940909;29;20034;-75
2021/08/24 06:24:41;;;;;;;7.35;3.33;;;;;;;15.41;81.19;99514.09;4943682;29;20042;-78
2021/08/24 06:27:07;;;;;;;7.05;3.40;;;;;;;15.72;80.98;99513.31;4941579;28;20139;-74
2021/08/24 06:29:33;;;;;;;4.10;3.70;;;;;;;15.84;77.61;99512.13;4942256;28;20046;-77
2021/08/24 06:32:00;;;;;;;7.90;3.28;;;;;;;15.84;78.45;99512.13;4957337;28;20027;-78
2021/08/24 06:34:28;;;;;;;5.13;3.55;;;;;;;15.72;78.67;99520.31;4943363;29;20027;-76
2021/08/24 06:36:53;;;;;;;3.78;3.08;;;;;;;15.39;79.79;99517.66;4947078;28;20082;-78
2021/08/24 06:39:20;;;;;;;7.40;3.63;;;;;;;15.27;82.23;99520.56;4946960;29;20110;-78
2021/08/24 06:41:45;;;;;;;5.63;4.57;;;;;;;15.10;83.23;99519.22;4947520;29;20035;-78
2021/08/24 06:44:12;;;;;;;4.32;3.80;;;;;;;14.90;84.30;99516.25;4946344;29;20124;-78
2021/08/24 06:46:38;;;;;;;5.72;3.70;;;;;;;14.78;83.71;99521.75;4944701;28;20031;-77
2021/08/24 06:49:03;;;;;;;9.05;3.97;;;;;;;14.28;88.22;99521.09;4943465;28;20035;-76
2021/08/24 06:51:29;;;;;;;6.00;4.22;;;;;;;14.60;87.35;99518.69;4944337;29;20078;-77
2021/08/24 06:53:54;;;;;;;5.60;3.63;;;;;;;14.86;86.89;99519.81;4944747;29;20748;-77
2021/08/24 06:56:19;;;;;;;9.48;4.13;;;;;;;14.81;85.54;99521.69;4943340;29;20034;-75
2021/08/24 06:58:47;;;;;;;5.22;3.70;;;;;;;14.83;84.07;99525.94;4942247;29;20193;-77
2021/08/24 07:01:17;;;;;;;10.95;4.78;;;;;;;14.58;84.98;99519.59;4941547;29;20118;-77
2021/08/24 07:03:43;;;;;;;8.00;4.22;;;;;;;14.43;86.07;99525.09;4934594;29;20035;-75
2021/08/24 07:06:09;;;;;;;8.98;4.50;;;;;;;14.51;85.99;99518.88;4944647;29;20569;-75
2021/08/24 07:08:34;;;;;;;9.73;3.85;;;;;;;14.80;85.57;99520.81;4943316;28;20377;-75
2021/08/24 07:10:59;;;;;;;4.32;3.75;;;;;;;14.98;85.61;99516.03;4944576;28;20393;-75
2021/08/24 07:13:27;;;;;;;7.45;3.90;;;;;;;14.97;83.31;99517.81;4942232;29;20102;-75
2021/08/24 07:15:54;;;;;;;8.35;4.22;;;;;;;14.89;83.76;99519.72;4944086;29;20091;-75
2021/08/24 07:18:19;;;;;;;18.77;7.82;;;;;;;15.10;83.02;99519.22;4942593;29;20027;-75
2021/08/24 07:20:52;;;;;;;7.72;4.22;;;;;;;15.22;83.42;99522.44;4942827;28;20046;-75
2021/08/24 07:23:18;;;;;;;4.55;3.47;;;;;;;15.21;83.40;99526.78;4944197;29;20054;-78
2021/08/24 07:25:43;;;;;;;5.85;3.38;;;;;;;15.21;81.03;99520.72;4891869;29;20078;-78
2021/08/24 07:28:10;;;;;;;11.38;4.25;;;;;;;15.63;80.60;99521.38;4944280;29;20070;-78
2021/08/24 07:30:42;;;;;;;4.72;3.50;;;;;;;15.60;80.42;99521.44;4940359;28;20035;-74
2021/08/24 07:33:08;;;;;;;5.63;3.30;;;;;;;16.58;76.00;99516.91;4941803;28;20042;-75
2021/08/24 07:35:34;;;;;;;9.27;4.13;;;;;;;16.21;75.91;99511.09;4940881;28;20645;-74
2021/08/24 07:38:01;;;;;;;6.57;3.28;;;;;;;17.06;73.38;99503.22;4942755;29;20038;-75
2021/08/24 07:40:27;;;;;;;4.35;2.90;;;;;;;17.28;72.15;99506.00;4937574;29;20038;-76
2021/08/24 07:42:52;;;;;;;6.05;2.70;;;;;;;17.62;69.79;99510.94;4941267;28;20030;-77
2021/08/24 07:45:19;;;;;;;4.13;2.78;;;;;;;17.81;70.12;99505.94;4943042;28;20408;-79
2021/08/24 07:47:44;;;;;;;5.93;2.95;;;;;;;18.68;66.76;99500.06;4943388;29;20023;-77
2021/08/24 07:50:09;;;;;;;5.38;3.55;;;;;;;20.59;61.58;99495.34;4941555;28;20039;-78
2021/08/24 07:52:35;;;;;;;6.43;3.20;;;;;;;20.85;59.47;99496.75;4943554;28;20023;-76
2021/08/24 07:55:00;;;;;;;6.10;3.00;;;;;;;19.40;62.56;99502.38;4942668;28;20030;-75
2021/08/24 07:57:26;;;;;;;7.95;2.42;;;;;;;19.62;62.59;99502.31;4942693;29;20397;-75
2021/08/24 07:59:51;;;;;;;30.40;15.18;;;;;;;19.03;64.08;99505.66;4938675;29;20062;-79
2021/08/24 08:02:17;;;;;;;15.15;7.20;;;;;;;18.69;63.25;99514.88;4940716;29;20105;-75
2021/08/24 08:04:44;;;;;;;14.98;6.07;;;;;;;18.27;64.27;99521.75;4943412;28;20039;-74
2021/08/24 08:07:11;;;;;;;49.47;14.80;;;;;;;17.76;65.52;99520.97;4944384;29;20058;-75
2021/08/24 08:09:36;;;;;;;8.60;2.97;;;;;;;17.51;64.70;99527.94;4941927;28;20031;-75
2021/08/24 08:12:02;;;;;;;7.47;3.20;;;;;;;16.95;66.61;99531.50;4941414;28;20032;-78
2021/08/24 08:14:27;;;;;;;5.57;2.83;;;;;;;16.93;66.87;99528.09;4947927;28;20031;-76
2021/08/24 08:16:53;;;;;;;4.03;2.45;;;;;;;17.51;68.05;99528.81;4945141;28;20031;-77
2021/08/24 08:19:18;;;;;;;7.20;2.83;;;;;;;16.69;68.96;99527.06;4947373;28;20087;-77
2021/08/24 08:21:43;;;;;;;2.72;2.53;;;;;;;17.94;65.78;99527.34;4945999;28;20058;-79
2021/08/24 08:24:09;;;;;;;6.10;2.78;;;;;;;17.79;65.31;99530.47;4945446;29;20027;-76
2021/08/24 08:26:37;;;;;;;2.63;2.42;;;;;;;17.22;67.46;99521.94;4944196;28;20107;-74
2021/08/24 08:29:05;;;;;;;4.63;2.63;;;;;;;17.10;66.75;99514.44;4943659;29;20707;-77
2021/08/24 08:31:33;;;;;;;3.15;2.80;;;;;;;16.34;69.02;99534.22;4960390;28;20035;-79
2021/08/24 08:33:59;;;;;;;6.05;2.75;;;;;;;15.96;72.73;99527.47;4947580;29;20042;-77
2021/08/24 08:36:26;;;;;;;8.68;2.70;;;;;;;16.28;70.58;99533.53;4946660;28;20031;-78
2021/08/24 08:38:51;;;;;;;4.78;2.83;;;;;;;15.99;71.20;99535.22;4956925;28;20143;-76
2021/08/24 08:41:49;;;;;;;2.60;2.40;;;;;;;16.09;70.76;99534.06;4943185;29;21363;-75
2021/08/24 08:44:24;;;;;;;4.45;2.80;;;;;;;15.85;72.61;99534.75;4947476;29;20058;-74
2021/08/24 08:47:00;;;;;;;3.05;2.40;;;;;;;16.21;73.40;99526.78;4943346;29;20062;-78
2021/08/24 08:49:53;;;;;;;2.95;2.50;;;;;;;16.02;72.31;99532.53;4942068;28;20027;-75
2021/08/24 08:52:26;;;;;;;3.35;2.50;;;;;;;16.51;70.18;99525.00;4944212;29;20097;-77
2021/08/24 08:55:12;;;;;;;4.82;2.55;;;;;;;16.82;70.40;99517.09;4957683;28;20126;-78
2021/08/24 08:57:45;;;;;;;3.80;2.40;;;;;;;18.06;66.36;99508.50;4946044;29;20031;-74
2021/08/24 09:00:18;;;;;;;3.03;2.72;;;;;;;19.17;61.97;99516.47;4946175;28;20087;-75
2021/08/24 09:02:57;;;;;;;3.55;2.70;;;;;;;17.34;66.25;99523.25;4945455;29;20085;-74
2021/08/24 09:05:25;;;;;;;3.85;2.90;;;;;;;17.09;67.14;99513.59;4944795;28;20038;-74
2021/08/24 09:07:54;;;;;;;3.72;2.72;;;;;;;16.41;69.56;99532.28;4945894;29;20026;-74
2021/08/24 09:10:33;;;;;;;3.88;2.75;;;;;;;16.37;70.91;99528.03;4946820;28;20040;-77
2021/08/24 09:13:12;;;;;;;5.30;2.75;;;;;;;16.22;72.25;99528.50;4944434;29;20044;-75
2021/08/24 09:15:43;;;;;;;6.45;2.92;;;;;;;16.27;71.83;99531.81;4937710;29;20038;-75
2021/08/24 09:18:14;;;;;;;2.95;2.70;;;;;;;16.56;71.83;99518.72;4945678;29;20039;-78
2021/08/24 09:20:55;;;;;;;3.85;2.80;;;;;;;16.74;70.87;99522.59;4939703;28;20039;-78
2021/08/24 09:23:21;;;;;;;5.65;3.00;;;;;;;17.11;70.89;99527.50;4945957;28;20925;-79
2021/08/24 09:26:29;;;;;;;6.55;3.28;;;;;;;16.86;69.79;99516.09;4946168;29;20027;-79
2021/08/24 09:28:56;;;;;;;3.08;2.78;;;;;;;16.70;70.30;99521.78;4913309;28;20055;-75
2021/08/24 09:31:24;;;;;;;3.75;3.10;;;;;;;16.38;71.65;99514.91;4940371;29;20500;-76
2021/08/24 09:33:51;;;;;;;4.65;2.95;;;;;;;16.53;71.55;99512.72;4943601;28;21548;-77
2021/08/24 09:36:18;;;;;;;5.10;2.88;;;;;;;16.77;70.72;99516.38;4943139;29;20055;-75
2021/08/24 09:38:46;;;;;;;5.15;2.75;;;;;;;17.10;68.22;99514.44;4943391;29;20117;-76
2021/08/24 09:41:24;;;;;;;3.92;3.10;;;;;;;16.82;69.27;99514.47;4945502;29;20034;-75
2021/08/24 09:43:54;;;;;;;6.47;3.33;;;;;;;16.53;71.28;99529.28;4943971;29;20027;-77
2021/08/24 09:46:19;;;;;;;5.88;2.80;;;;;;;16.64;70.81;99527.22;4943155;29;20027;-75
2021/08/24 09:49:05;;;;;;;2.85;2.58;;;;;;;16.37;72.70;99528.03;4943840;29;20476;-74
2021/08/24 09:51:34;;;;;;;3.65;3.25;;;;;;;16.56;71.52;99523.97;4945075;28;20396;-78
2021/08/24 09:54:02;;;;;;;6.30;3.50;;;;;;;16.21;72.62;99526.78;4943523;29;20031;-77
2021/08/24 09:56:35;;;;;;;3.92;3.10;;;;;;;16.37;71.96;99517.56;4944720;29;20477;-77
2021/08/24 09:59:01;;;;;;;5.63;3.65;;;;;;;16.28;72.65;99523.06;4943407;29;20031;-77
2021/08/24 10:01:44;;;;;;;4.45;3.05;;;;;;;16.45;72.21;99518.22;4944937;29;20401;-75
2021/08/24 10:04:09;;;;;;;8.40;3.05;;;;;;;16.19;72.06;99524.19;4945544;28;20388;-77
2021/08/24 10:06:39;;;;;;;6.03;3.05;;;;;;;16.64;72.31;99516.75;4944492;28;20031;-79
2021/08/24 10:09:39;;;;;;;5.03;3.00;;;;;;;17.38;68.96;99517.03;4943441;29;20149;-79
2021/08/24 10:12:13;;;;;;;5.72;3.15;;;;;;;17.26;68.87;99517.41;4889257;29;20117;-80
2021/08/24 10:14:39;;;;;;;3.63;2.80;;;;;;;16.77;69.74;99521.63;4943175;29;20028;-79
2021/08/24 10:17:11;;;;;;;3.22;2.50;;;;;;;17.29;68.32;99514.69;4943107;29;20023;-79
2021/08/24 10:19:41;;;;;;;4.22;2.70;;;;;;;17.80;67.48;99506.00;4942073;28;20042;-76
2021/08/24 10:22:16;;;;;;;5.18;2.83;;;;;;;17.50;67.74;99519.19;4944303;28;20039;-75
2021/08/24 10:24:55;;;;;;;2.80;2.53;;;;;;;18.01;66.67;99510.47;4942632;28;20041;-76
2021/08/24 10:27:30;;;;;;;3.60;2.58;;;;;;;17.91;67.02;99519.56;4943347;28;20039;-76
2021/08/24 10:29:59;;;;;;;5.03;2.53;;;;;;;17.89;66.98;99516.13;4959633;28;20043;-79
2021/08/24 10:32:30;;;;;;;4.65;2.63;;;;;;;18.07;66.85;99520.72;4942694;29;20109;-79
2021/08/24 10:34:59;;;;;;;3.30;2.72;;;;;;;17.86;67.69;99521.50;4937905;28;20082;-75
2021/08/24 10:37:24;;;;;;;4.90;2.72;;;;;;;18.01;67.21;99520.09;4941373;28;20035;-79
2021/08/24 10:39:55;;;;;;;2.90;2.55;;;;;;;18.24;66.07;99518.34;4943839;29;20038;-79
2021/08/24 10:42:30;;;;;;;8.35;2.80;;;;;;;18.53;65.07;99508.50;4944456;28;20031;-76
2021/08/24 10:45:03;;;;;;;4.10;2.50;;;;;;;18.92;62.55;99516.59;4940868;29;20030;-79
2021/08/24 10:47:52;;;;;;;6.30;2.67;;;;;;;18.28;64.89;99512.97;4940933;29;20101;-79
2021/08/24 10:50:44;;;;;;;3.33;2.35;;;;;;;17.49;67.08;99525.34;4941646;29;20094;-76
2021/08/24 10:53:31;;;;;;;2.72;2.33;;;;;;;17.64;68.47;99527.44;4943749;29;20027;-79
2021/08/24 10:56:11;;;;;;;2.70;2.50;;;;;;;17.89;68.28;99531.84;4942828;29;20113;-79
2021/08/24 10:59:01;;;;;;;3.60;2.55;;;;;;;18.34;65.98;99534.59;4943332;28;20061;-79
2021/08/24 11:01:36;;;;;;;2.55;2.35;;;;;;;17.91;67.12;99530.06;4942725;28;20027;-79
2021/08/24 11:04:13;;;;;;;3.00;2.47;;;;;;;17.47;69.31;99535.06;4941417;29;20035;-77
2021/08/24 11:07:25;;;;;;;5.00;2.38;;;;;;;18.33;67.75;99527.63;4943769;29;20047;-79
2021/08/24 11:09:55;;;;;;;4.43;2.38;;;;;;;18.34;66.13;99531.09;4941813;28;20033;-79
2021/08/24 11:12:33;;;;;;;2.92;2.08;;;;;;;18.58;65.36;99517.06;4938500;29;20420;-77
2021/08/24 11:15:05;;;;;;;3.72;2.47;;;;;;;18.89;65.13;99515.88;4943288;29;20031;-79
2021/08/24 11:17:33;;;;;;;4.03;2.90;;;;;;;19.64;62.14;99515.41;4938967;29;20481;-79
2021/08/24 11:20:08;;;;;;;4.72;2.90;;;;;;;20.46;60.54;99511.69;4940066;28;20114;-78
2021/08/24 11:23:05;;;;;;;4.85;3.00;;;;;;;20.77;59.88;99508.47;4932868;29;20035;-76
2021/08/24 11:25:50;;;;;;;3.70;2.40;;;;;;;20.69;59.00;99512.41;4934005;29;20027;-79
2021/08/24 11:28:27;;;;;;;4.32;2.60;;;;;;;20.61;58.35;99515.41;4933996;28;20171;-78
2021/08/24 11:31:20;;;;;;;4.35;2.22;;;;;;;20.36;59.92;99512.19;4932589;29;20560;-74
2021/08/24 11:33:55;;;;;;;2.78;2.30;;;;;;;20.14;60.14;99510.53;4933671;29;20036;-78
2021/08/24 11:36:31;;;;;;;5.85;2.50;;;;;;;19.26;62.52;99521.34;4935149;28;20063;-79
2021/08/24 11:39:14;;;;;;;2.60;2.28;;;;;;;18.68;66.08;99521.06;4936784;29;20497;-74
2021/08/24 11:41:43;;;;;;;3.03;2.08;;;;;;;18.72;65.87;99511.28;4936072;29;20039;-74
2021/08/24 11:44:17;;;;;;;2.80;2.08;;;;;;;19.20;65.15;99516.34;4934584;28;20082;-75
2021/08/24 11:46:54;;;;;;;4.47;2.72;;;;;;;19.21;64.13;99518.03;4936556;28;20027;-76
2021/08/24 11:49:28;;;;;;;2.65;2.10;;;;;;;19.37;63.28;99514.78;4940971;29;20377;-78
2021/08/24 11:52:22;;;;;;;3.88;2.15;;;;;;;19.34;64.47;99522.78;4942106;29;20094;-78
2021/08/24 11:55:16;;;;;;;2.75;2.17;;;;;;;18.04;68.71;99526.09;4943549;29;20508;-75
2021/08/24 11:57:52;;;;;;;2.97;2.60;;;;;;;18.79;65.87;99519.78;4944000;28;20027;-78
2021/08/24 12:00:18;;;;;;;3.28;2.08;;;;;;;19.38;64.91;99513.84;4944396;29;20031;-78
2021/08/24 12:02:50;;;;;;;2.85;2.50;;;;;;;19.35;63.52;99511.38;4943298;29;20030;-77
2021/08/24 12:05:21;;;;;;;2.50;2.15;;;;;;;19.88;62.78;99514.34;4942711;28;20027;-77
2021/08/24 12:07:55;;;;;;;3.10;2.10;;;;;;;19.20;63.89;99516.34;4947569;28;20078;-77
2021/08/24 12:10:30;;;;;;;2.63;2.42;;;;;;;18.75;64.86;99519.88;4946546;29;20039;-75
2021/08/24 12:13:02;;;;;;;2.10;1.90;;;;;;;18.35;66.48;99524.94;4945831;28;20157;-78
2021/08/24 12:15:36;;;;;;;2.55;2.35;;;;;;;18.19;66.46;99530.75;4943125;28;20032;-79
2021/08/24 12:18:09;;;;;;;4.30;2.40;;;;;;;17.91;69.17;99532.69;4944984;28;20035;-75
2021/08/24 12:20:42;;;;;;;2.55;2.25;;;;;;;17.94;68.77;99535.19;4954480;29;20023;-79
2021/08/24 12:23:12;;;;;;;2.80;2.30;;;;;;;17.73;69.28;99537.66;4948867;28;20019;-76
2021/08/24 12:25:45;;;;;;;2.72;2.45;;;;;;;17.68;70.95;99534.31;4947503;29;20038;-79
2021/08/24 12:28:14;;;;;;;3.42;2.60;;;;;;;17.58;70.72;99532.91;4944837;28;20038;-78
2021/08/24 12:30:58;;;;;;;4.85;2.97;;;;;;;17.74;69.69;99533.25;4946231;29;20122;-77
2021/08/24 12:33:34;;;;;;;5.53;2.80;;;;;;;18.34;68.48;99533.72;4943248;28;20047;-77
2021/08/24 12:36:21;;;;;;;2.78;2.47;;;;;;;18.30;67.80;99532.97;4931425;29;20035;-75
2021/08/24 12:38:48;;;;;;;3.42;2.50;;;;;;;18.66;67.16;99517.63;4937642;29;20043;-80
2021/08/24 12:41:32;;;;;;;4.10;2.65;;;;;;;19.11;64.60;99527.22;4944433;29;20035;-79
2021/08/24 12:44:12;;;;;;;3.35;2.45;;;;;;;19.76;63.68;99520.13;4943738;29;20026;-79
2021/08/24 12:47:18;;;;;;;6.05;2.85;;;;;;;19.73;62.94;99521.13;4946087;28;20031;-80
2021/08/24 12:49:43;;;;;;;4.13;2.75;;;;;;;19.26;64.22;99526.59;4926055;28;20082;-80
2021/08/24 12:52:14;;;;;;;3.13;2.60;;;;;;;19.72;63.18;99519.41;4937549;28;20412;-79
2021/08/24 12:54:55;;;;;;;2.95;2.65;;;;;;;18.62;66.29;99521.28;4938601;29;20031;-77
2021/08/24 12:57:42;;;;;;;3.55;2.58;;;;;;;18.74;67.04;99523.44;4939287;29;20241;-76
2021/08/24 13:00:25;;;;;;;3.92;2.50;;;;;;;18.13;69.47;99531.00;4937483;29;20031;-80
2021/08/24 13:02:58;;;;;;;3.20;2.75;;;;;;;18.71;67.94;99523.56;4937029;28;22299;-76
2021/08/24 13:05:28;;;;;;;3.15;2.63;;;;;;;18.24;68.58;99528.81;4939240;29;20035;-79
2021/08/24 13:08:09;;;;;;;3.50;2.80;;;;;;;18.72;67.91;99521.81;4937456;28;20035;-77
2021/08/24 13:10:41;;;;;;;4.55;3.00;;;;;;;18.95;66.19;99532.25;4932994;29;20523;-76
2021/08/24 13:13:31;;;;;;;3.10;2.70;;;;;;;18.95;66.73;99520.88;4931132;29;20039;-77
2021/08/24 13:16:00;;;;;;;2.97;2.67;;;;;;;18.96;66.22;99518.19;4937445;28;20039;-76
2021/08/24 13:18:34;;;;;;;2.90;2.60;;;;;;;19.09;65.95;99518.53;4937948;29;20027;-82
2021/08/24 13:21:58;;;;;;;3.00;2.65;;;;;;;18.96;66.00;99512.09;4946328;29;20032;-77
2021/08/24 13:24:34;;;;;;;3.17;2.75;;;;;;;19.22;64.95;99519.75;4921174;28;20400;-76
2021/08/24 13:27:05;;;;;;;7.22;3.25;;;;;;;18.91;66.18;99519.31;4942912;28;20023;-79
2021/08/24 13:29:38;;;;;;;3.67;2.50;;;;;;;19.66;63.24;99508.31;4936700;29;20039;-76
2021/08/24 13:32:26;;;;;;;3.67;2.47;;;;;;;20.06;62.56;99502.13;4942753;29;20038;-76
2021/08/24 13:34:57;;;;;;;3.60;2.70;;;;;;;20.09;60.78;99501.16;4943949;29;20110;-77
2021/08/24 13:37:41;;;;;;;3.38;3.00;;;;;;;20.12;61.25;99503.66;4943148;28;20043;-80
2021/08/24 13:40:26;;;;;;;3.17;2.83;;;;;;;20.46;59.78;99495.06;4943316;28;20034;-78
2021/08/24 13:42:52;;;;;;;3.42;2.58;;;;;;;21.28;57.50;99496.31;4945703;28;20129;-75
2021/08/24 13:45:37;;;;;;;3.65;2.75;;;;;;;20.62;58.51;99495.19;4945557;29;20034;-78
2021/08/24 13:48:05;;;;;;;3.05;2.60;;;;;;;20.57;60.73;99497.19;4943558;29;20110;-75
2021/08/24 13:50:34;;;;;;;5.15;2.55;;;;;;;20.48;60.17;99498.47;4943808;28;20039;-78
2021/08/24 13:53:02;;;;;;;4.32;2.72;;;;;;;21.03;58.24;99495.81;4941337;29;20049;-76
2021/08/24 13:55:31;;;;;;;3.33;3.03;;;;;;;20.51;60.97;99495.72;4943683;29;20771;-77
2021/08/24 13:58:15;;;;;;;4.30;2.73;;;;;;;20.70;60.51;99493.91;4943416;29;21012;-77
2021/08/24 14:00:42;;;;;;;2.70;2.50;;;;;;;20.15;62.58;99496.44;4941757;28;20049;-78
2021/08/24 14:03:14;;;;;;;3.70;3.08;;;;;;;19.71;62.56;99496.66;4944159;29;20038;-75
2021/08/24 14:05:39;;;;;;;4.22;3.30;;;;;;;19.84;63.19;99490.88;4941960;29;20035;-78
2021/08/24 14:08:05;;;;;;;3.92;2.90;;;;;;;20.07;61.66;99492.47;4942316;28;20023;-79
2021/08/24 14:10:31;;;;;;;3.35;3.05;;;;;;;20.27;60.79;99489.78;4942789;28;20058;-78
2021/08/24 14:12:58;;;;;;;2.83;2.58;;;;;;;20.43;61.58;99489.91;4943054;29;20028;-80
2021/08/24 14:15:36;;;;;;;3.25;2.92;;;;;;;20.36;61.15;99493.78;4944676;29;20488;-79
2021/08/24 14:18:14;;;;;;;5.22;3.30;;;;;;;19.41;62.61;99492.69;4942206;29;20027;-79
2021/08/24 14:20:50;;;;;;;4.47;3.38;;;;;;;19.32;64.08;99487.84;4942599;28;20449;-76
2021/08/24 14:23:26;;;;;;;4.18;3.78;;;;;;;18.68;66.34;99486.94;4932858;29;20114;-78
2021/08/24 14:25:55;;;;;;;7.78;3.20;;;;;;;19.04;66.63;99485.50;4940930;29;20024;-77
2021/08/24 14:28:30;;;;;;;3.28;2.97;;;;;;;19.23;65.84;99479.41;4941183;28;20034;-79
2021/08/24 14:30:57;;;;;;;5.07;2.60;;;;;;;19.55;64.01;99485.09;4944962;29;20039;-80
2021/08/24 14:33:34;;;;;;;4.63;3.47;;;;;;;19.91;63.59;99484.41;4943372;28;20090;-77
2021/08/24 14:36:05;;;;;;;3.75;3.42;;;;;;;20.13;64.29;99474.63;4932808;29;20484;-77
2021/08/24 14:38:49;;;;;;;4.00;3.60;;;;;;;19.95;64.30;99483.34;4941563;28;20642;-77
2021/08/24 14:41:33;;;;;;;5.18;2.97;;;;;;;20.62;61.69;99482.03;4943294;28;20057;-77
2021/08/24 14:44:13;;;;;;;4.57;3.15;;;;;;;20.35;61.08;99481.50;4944433;28;20027;-78
2021/08/24 14:46:46;;;;;;;3.78;3.38;;;;;;;20.32;62.71;99486.94;4940018;29;20470;-78
2021/08/24 14:49:26;;;;;;;4.75;3.83;;;;;;;19.87;63.89;99485.47;4941703;28;20027;-78
2021/08/24 14:51:53;;;;;;;8.45;3.40;;;;;;;20.78;59.51;99470.66;4940938;28;20038;-79
2021/08/24 14:54:36;;;;;;;6.13;3.65;;;;;;;20.44;61.59;99475.81;4944785;28;20693;-78
2021/08/24 14:57:20;;;;;;;3.17;2.92;;;;;;;20.81;59.82;99468.84;4944417;29;20114;-76
2021/08/24 14:59:46;;;;;;;9.27;3.38;;;;;;;21.27;58.73;99473.53;4943891;28;20047;-80
2021/08/24 15:02:11;;;;;;;4.75;3.13;;;;;;;21.39;58.44;99472.06;4941924;29;21372;-77
2021/08/24 15:04:38;;;;;;;5.63;3.63;;;;;;;20.38;60.83;99468.22;4943491;29;20111;-78
2021/08/24 15:07:15;;;;;;;4.53;3.70;;;;;;;20.23;62.46;99477.69;4941866;29;20031;-78
2021/08/24 15:09:40;;;;;;;3.88;3.50;;;;;;;20.14;62.84;99463.16;4942528;28;20052;-79
2021/08/24 15:12:21;;;;;;;5.78;4.25;;;;;;;19.54;64.03;99464.97;4941375;28;20519;-79
2021/08/24 15:14:54;;;;;;;7.18;3.58;;;;;;;19.89;63.23;99462.59;4942258;29;20024;-79
2021/08/24 15:17:41;;;;;;;4.68;4.18;;;;;;;19.95;61.21;99467.56;4942475;28;20046;-80
2021/08/24 15:20:18;;;;;;;4.43;4.03;;;;;;;19.63;61.52;99461.97;4943608;28;20027;-79
2021/08/24 15:22:59;;;;;;;5.53;3.85;;;;;;;19.38;62.55;99467.38;4944512;28;20034;-79
2021/08/24 15:25:37;;;;;;;5.53;4.10;;;;;;;18.97;64.09;99471.78;4946379;29;20031;-76
2021/08/24 15:28:06;;;;;;;6.28;4.30;;;;;;;19.14;64.46;99469.28;4943366;29;20021;-76
2021/08/24 15:30:32;;;;;;;;;;;;;;;19.29;64.76;99472.19;4946493;29;20046;-79
2021/08/24 15:33:01;;;;;;;5.03;4.05;;;;;;;19.46;63.56;99456.56;4945532;29;20281;-79
2021/08/24 15:35:30;;;;;;;9.48;3.72;;;;;;;19.90;63.63;99464.28;4945500;28;20039;-76
2021/08/24 15:38:01;;;;;;;7.50;3.95;;;;;;;19.94;63.19;99452.72;4943652;29;20020;-76
2021/08/24 15:40:27;;;;;;;4.57;4.18;;;;;;;19.73;61.90;99444.88;4944322;28;20380;-76
2021/08/24 15:42:53;;;;;;;9.10;4.20;;;;;;;19.87;61.50;99443.38;4945535;28;20050;-77
2021/08/24 15:45:30;;;;;;;5.65;3.97;;;;;;;20.07;61.75;99432.81;4945342;29;20581;-76
2021/08/24 15:47:57;;;;;;;4.97;4.47;;;;;;;19.37;64.23;99443.81;4946915;29;20440;-76
2021/08/24 15:50:33;;;;;;;4.95;4.28;;;;;;;19.40;63.53;99427.91;4943730;28;20055;-79
2021/08/24 15:52:59;;;;;;;5.28;3.90;;;;;;;19.36;63.76;99432.44;4944071;28;20031;-79
2021/08/24 15:55:24;;;;;;;6.25;4.90;;;;;;;19.15;64.50;99436.00;4942476;28;20065;-77
2021/08/24 15:57:49;;;;;;;7.57;4.70;;;;;;;19.69;62.88;99431.94;4942372;29;20023;-76
2021/08/24 16:00:15;;;;;;;5.45;4.35;;;;;;;19.69;62.52;99424.88;4944969;29;20416;-74
2021/08/24 16:02:40;;;;;;;4.95;4.40;;;;;;;19.75;63.40;99429.88;4944444;29;20056;-75
2021/08/24 16:05:09;;;;;;;5.82;4.53;;;;;;;19.43;61.49;99426.00;4945990;28;20031;-75
2021/08/24 16:07:34;;;;;;;6.82;4.50;;;;;;;19.56;62.05;99431.56;4942865;28;20074;-78